Time;durP1;ratioP1;P1;durP2;ratioP2;P2;SDS_P1;SDS_P2;PMS_P1;PMS_P2;Temp;Humidity;BMP_temperature;BMP_pressure;BME280_temperature;BME280_humidity;BME280_pressure;Samples;Min_cycle;Max_cycle;Signal;HPM_P1;HPM_P2
2021/09/02 00:01:24;;;;;;;13.60;9.23;;;16.20;99.90;;;;;;5014109;28;20024;-76
2021/09/02 00:03:49;;;;;;;10.60;8.50;;;16.20;99.90;;;;;;5013706;28;20028;-75
2021/09/02 00:06:15;;;;;;;15.00;9.57;;;16.20;99.90;;;;;;5013322;28;20045;-75
2021/09/02 00:08:40;;;;;;;12.80;9.07;;;16.50;99.90;;;;;;5013454;28;20064;-75
2021/09/02 00:11:06;;;;;;;12.55;8.57;;;16.10;99.90;;;;;;5013472;28;20041;-76
2021/09/02 00:13:31;;;;;;;14.95;9.23;;;16.10;99.90;;;;;;5012981;28;20018;-74
2021/09/02 00:15:57;;;;;;;20.75;9.27;;;16.10;99.90;;;;;;5013592;28;20145;-75
2021/09/02 00:18:23;;;;;;;13.57;8.95;;;16.10;99.90;;;;;;5013629;28;20129;-74
2021/09/02 00:20:48;;;;;;;14.02;9.40;;;16.10;99.90;;;;;;5012651;28;20058;-75
2021/09/02 00:23:14;;;;;;;12.07;9.70;;;16.10;99.90;;;;;;5013736;28;20092;-75
2021/09/02 00:25:39;;;;;;;13.07;9.63;;;16.00;99.90;;;;;;5013129;28;20071;-75
2021/09/02 00:28:05;;;;;;;15.95;9.77;;;16.00;99.90;;;;;;5012989;28;20536;-76
2021/09/02 00:30:30;;;;;;;12.77;9.50;;;16.00;99.90;;;;;;5012905;28;20032;-76
2021/09/02 00:32:56;;;;;;;10.93;8.27;;;16.00;99.90;;;;;;5013614;28;20022;-75
2021/09/02 00:35:22;;;;;;;11.55;9.20;;;16.00;99.90;;;;;;5012820;28;20086;-75
2021/09/02 00:37:47;;;;;;;15.45;9.38;;;16.00;99.90;;;;;;5012914;28;20026;-76
2021/09/02 00:40:13;;;;;;;12.55;9.70;;;16.00;99.90;;;;;;5013528;28;20382;-75
2021/09/02 00:42:38;;;;;;;12.48;9.45;;;16.00;99.90;;;;;;5012154;28;20113;-75
2021/09/02 00:45:05;;;;;;;14.05;8.77;;;16.10;99.90;;;;;;5013462;28;20080;-75
2021/09/02 00:47:31;;;;;;;11.00;9.48;;;16.00;99.90;;;;;;5012854;28;20022;-76
2021/09/02 00:49:56;;;;;;;9.85;8.27;;;16.00;99.90;;;;;;5012332;28;20045;-76
2021/09/02 00:52:29;;;;;;;9.50;8.43;;;16.00;99.90;;;;;;5013115;28;20026;-76
2021/09/02 00:54:59;;;;;;;10.88;8.77;;;16.10;99.90;;;;;;5013036;28;20100;-76
2021/09/02 00:57:27;;;;;;;8.70;7.75;;;16.00;99.90;;;;;;5012755;28;20030;-75
2021/09/02 00:59:56;;;;;;;10.55;8.27;;;16.00;99.90;;;;;;5012919;28;20076;-75
2021/09/02 01:02:23;;;;;;;10.10;8.10;;;16.00;99.90;;;;;;5012493;28;20065;-76
2021/09/02 01:04:51;;;;;;;9.73;8.05;;;15.90;99.90;;;;;;5013202;28;20032;-77
2021/09/02 01:07:18;;;;;;;8.60;7.40;;;16.00;99.90;;;;;;5012688;28;20403;-75
2021/09/02 01:09:45;;;;;;;11.60;7.25;;;16.00;99.90;;;;;;5011948;28;20386;-74
2021/09/02 01:12:43;;;;;;;10.68;8.25;;;16.00;99.90;;;;;;5012869;28;20088;-76
2021/09/02 01:15:10;;;;;;;8.25;7.13;;;16.00;99.90;;;;;;5013028;28;20026;-75
2021/09/02 01:17:37;;;;;;;10.40;6.70;;;16.10;99.90;;;;;;5012122;28;20053;-75
2021/09/02 01:20:06;;;;;;;8.73;7.28;;;16.00;99.90;;;;;;5012698;28;20533;-76
2021/09/02 01:22:31;;;;;;;7.82;7.03;;;16.00;99.90;;;;;;5012196;28;20044;-76
2021/09/02 01:24:59;;;;;;;11.98;6.55;;;16.10;99.90;;;;;;5011886;28;20528;-76
2021/09/02 01:27:26;;;;;;;13.70;8.43;;;16.00;99.90;;;;;;5011654;28;20022;-76
2021/09/02 01:29:58;;;;;;;7.22;5.70;;;16.00;99.90;;;;;;5012285;28;20045;-74
2021/09/02 01:32:26;;;;;;;7.35;6.00;;;16.00;99.90;;;;;;5011651;28;20072;-74
2021/09/02 01:34:56;;;;;;;7.68;6.38;;;16.10;99.90;;;;;;5012624;28;20032;-74
2021/09/02 01:37:23;;;;;;;7.78;6.60;;;16.10;99.90;;;;;;5011650;28;20044;-74
2021/09/02 01:39:50;;;;;;;7.00;5.93;;;16.10;99.90;;;;;;5011991;28;20030;-75
2021/09/02 01:42:16;;;;;;;11.07;8.27;;;16.10;99.90;;;;;;5012169;28;20426;-75
2021/09/02 01:44:41;;;;;;;10.10;6.90;;;16.10;99.90;;;;;;5010984;28;20030;-75
2021/09/02 01:47:24;;;;;;;9.90;7.40;;;16.00;99.90;;;;;;5012212;28;20026;-74
2021/09/02 01:49:50;;;;;;;10.35;7.47;;;16.00;99.90;;;;;;5011668;28;20064;-74
2021/09/02 01:52:17;;;;;;;7.30;6.60;;;16.00;99.90;;;;;;5010980;28;20026;-75
2021/09/02 01:54:42;;;;;;;13.65;7.68;;;16.00;99.90;;;;;;5011739;28;20040;-75
2021/09/02 01:57:08;;;;;;;9.90;7.15;;;16.00;99.90;;;;;;5012098;28;20026;-74
2021/09/02 01:59:34;;;;;;;8.25;6.85;;;16.00;99.90;;;;;;5010964;28;20033;-75
2021/09/02 02:02:00;;;;;;;9.30;7.13;;;16.00;99.90;;;;;;5012190;28;20087;-75
2021/09/02 02:04:25;;;;;;;7.32;6.63;;;15.90;99.90;;;;;;5011939;28;20030;-74
2021/09/02 02:06:51;;;;;;;9.90;6.40;;;15.90;99.90;;;;;;5011140;28;20022;-75
2021/09/02 02:09:16;;;;;;;7.53;6.05;;;15.90;99.90;;;;;;5011614;28;20120;-75
2021/09/02 02:11:42;;;;;;;7.53;6.15;;;15.90;99.90;;;;;;5011703;28;20036;-74
2021/09/02 02:14:13;;;;;;;10.60;7.07;;;15.90;99.90;;;;;;5011154;28;20022;-74
2021/09/02 02:16:39;;;;;;;12.25;6.85;;;15.90;99.90;;;;;;5011794;28;20034;-75
2021/09/02 02:19:05;;;;;;;6.82;5.90;;;15.90;99.90;;;;;;5011893;28;20033;-74
2021/09/02 02:21:30;;;;;;;9.02;6.43;;;15.90;99.90;;;;;;5011128;28;20113;-75
2021/09/02 02:23:56;;;;;;;6.60;5.90;;;15.90;99.90;;;;;;5011914;28;20471;-75
2021/09/02 02:26:21;;;;;;;8.07;6.43;;;15.90;99.90;;;;;;5011915;28;20048;-74
2021/09/02 02:28:47;;;;;;;12.63;7.65;;;15.90;99.90;;;;;;5010754;28;20124;-74
2021/09/02 02:31:12;;;;;;;8.68;6.10;;;15.90;99.90;;;;;;5011948;28;20022;-74
2021/09/02 02:33:38;;;;;;;7.20;5.90;;;15.90;99.90;;;;;;5010602;28;20026;-75
2021/09/02 02:36:04;;;;;;;6.90;6.05;;;15.90;99.90;;;;;;5012004;28;20037;-75
2021/09/02 02:38:30;;;;;;;9.05;6.57;;;15.90;99.90;;;;;;5011565;28;20478;-75
2021/09/02 02:40:55;;;;;;;11.48;6.47;;;15.90;99.90;;;;;;5014339;28;20037;-77
2021/09/02 02:43:21;;;;;;;8.02;6.55;;;15.90;99.90;;;;;;5015810;28;20026;-76
2021/09/02 02:45:46;;;;;;;7.97;7.07;;;15.90;99.90;;;;;;5014887;28;20029;-76
2021/09/02 02:48:12;;;;;;;10.05;7.70;;;15.90;99.90;;;;;;5014862;28;20030;-76
2021/09/02 02:50:37;;;;;;;12.13;7.45;;;15.90;99.90;;;;;;5015041;28;20410;-76
2021/09/02 02:53:03;;;;;;;8.82;6.95;;;15.90;99.90;;;;;;5014985;28;20014;-76
2021/09/02 02:55:29;;;;;;;10.43;7.50;;;15.80;99.90;;;;;;5014372;28;20532;-74
2021/09/02 02:57:55;;;;;;;9.13;6.25;;;15.80;99.90;;;;;;5015268;28;20033;-74
2021/09/02 03:00:20;;;;;;;7.30;6.53;;;15.80;99.90;;;;;;5015448;28;20022;-75
2021/09/02 03:02:46;;;;;;;7.95;7.15;;;15.80;99.90;;;;;;5013937;28;20043;-74
2021/09/02 03:05:12;;;;;;;11.60;6.75;;;15.80;99.90;;;;;;5015011;28;20033;-75
2021/09/02 03:07:37;;;;;;;8.05;6.65;;;15.80;99.90;;;;;;5014779;28;20029;-75
2021/09/02 03:10:05;;;;;;;6.97;6.28;;;15.80;99.90;;;;;;5013792;28;20045;-75
2021/09/02 03:12:31;;;;;;;10.82;6.22;;;15.90;99.90;;;;;;5014593;28;20104;-75
2021/09/02 03:14:56;;;;;;;8.00;6.82;;;15.90;99.90;;;;;;5015066;28;20125;-76
2021/09/02 03:17:22;;;;;;;7.47;6.55;;;15.90;99.90;;;;;;5014300;28;20437;-76
2021/09/02 03:19:48;;;;;;;9.32;7.47;;;15.90;99.90;;;;;;5014351;28;20054;-75
2021/09/02 03:22:13;;;;;;;11.02;7.45;;;15.90;99.90;;;;;;5014207;28;20026;-76
2021/09/02 03:24:39;;;;;;;9.50;7.22;;;15.90;99.90;;;;;;5013666;28;20145;-76
2021/09/02 03:27:05;;;;;;;9.20;7.20;;;15.90;99.90;;;;;;5014825;28;20026;-75
2021/09/02 03:29:30;;;;;;;7.20;6.50;;;15.90;99.90;;;;;;5014137;28;20030;-75
2021/09/02 03:31:56;;;;;;;7.38;6.57;;;15.90;99.90;;;;;;5014489;28;20022;-74
2021/09/02 03:34:22;;;;;;;10.77;7.43;;;15.90;99.90;;;;;;5014573;28;20033;-76
2021/09/02 03:36:47;;;;;;;7.30;6.32;;;15.90;99.90;;;;;;5014355;28;20065;-76
2021/09/02 03:39:14;;;;;;;13.32;7.20;;;15.90;99.90;;;;;;5018951;28;20371;-76
2021/09/02 03:41:42;;;;;;;8.73;6.57;;;15.90;99.90;;;;;;5016538;28;20033;-78
2021/09/02 03:44:08;;;;;;;11.93;7.60;;;15.90;99.90;;;;;;5014493;28;20034;-76
2021/09/02 03:46:34;;;;;;;8.02;7.15;;;15.90;99.90;;;;;;5014294;28;20032;-76
2021/09/02 03:48:59;;;;;;;10.27;7.13;;;15.90;99.90;;;;;;5014158;28;20050;-74
2021/09/02 03:51:25;;;;;;;10.55;7.20;;;15.90;99.90;;;;;;5015550;28;20074;-76
2021/09/02 03:53:51;;;;;;;11.13;7.05;;;15.90;99.90;;;;;;5014007;28;20037;-75
2021/09/02 03:56:16;;;;;;;8.25;6.43;;;15.90;99.90;;;;;;5014126;28;20177;-75
2021/09/02 03:58:42;;;;;;;11.18;6.65;;;15.90;99.90;;;;;;5013368;28;20022;-76
2021/09/02 04:01:08;;;;;;;9.27;7.30;;;15.90;99.90;;;;;;5014199;28;20022;-76
2021/09/02 04:03:34;;;;;;;8.32;6.55;;;15.90;99.90;;;;;;5006673;28;20027;-75
2021/09/02 04:05:59;;;;;;;13.63;7.68;;;15.90;99.90;;;;;;5006607;28;20054;-76
2021/09/02 04:08:25;;;;;;;9.70;7.57;;;15.90;99.90;;;;;;5013485;28;20029;-75
2021/09/02 04:10:50;;;;;;;9.20;7.43;;;15.90;99.90;;;;;;5013803;28;20030;-75
2021/09/02 04:13:16;;;;;;;8.60;7.40;;;15.90;99.90;;;;;;5013249;28;20484;-75
2021/09/02 04:15:41;;;;;;;10.20;7.95;;;15.90;99.90;;;;;;5013686;28;20433;-76
2021/09/02 04:18:07;;;;;;;10.02;7.43;;;15.80;99.90;;;;;;5013507;28;20497;-76
2021/09/02 04:20:33;;;;;;;8.23;7.35;;;15.90;99.90;;;;;;5012895;28;20021;-78
2021/09/02 04:22:58;;;;;;;10.13;6.43;;;15.90;99.90;;;;;;5013510;28;20037;-76
2021/09/02 04:25:24;;;;;;;9.43;6.88;;;15.80;99.90;;;;;;5013548;28;20034;-76
2021/09/02 04:27:49;;;;;;;8.82;7.63;;;15.80;99.90;;;;;;5012866;28;20026;-76
2021/09/02 04:30:15;;;;;;;7.68;6.90;;;15.80;99.90;;;;;;5013616;28;20196;-76
2021/09/02 04:32:42;;;;;;;10.43;7.80;;;15.80;99.90;;;;;;5013213;28;20079;-76
2021/09/02 04:35:09;;;;;;;9.90;7.53;;;15.80;99.90;;;;;;5012647;28;20083;-76
2021/09/02 04:37:39;;;;;;;7.93;7.13;;;15.80;99.90;;;;;;5013178;28;20025;-76
2021/09/02 04:40:07;;;;;;;13.25;7.57;;;15.70;99.90;;;;;;5013345;28;20088;-75
2021/09/02 04:42:33;;;;;;;11.75;7.68;;;15.80;99.90;;;;;;5013243;28;20050;-75
2021/09/02 04:45:02;;;;;;;10.40;7.78;;;15.80;99.90;;;;;;5013388;28;20506;-76
2021/09/02 04:47:28;;;;;;;8.77;7.15;;;15.80;99.90;;;;;;5011943;28;20029;-75
2021/09/02 04:49:55;;;;;;;8.57;7.43;;;15.80;99.90;;;;;;5012866;28;20564;-75
2021/09/02 04:52:22;;;;;;;12.85;8.55;;;15.80;99.90;;;;;;5012642;28;20018;-76
2021/09/02 04:54:47;;;;;;;8.23;7.05;;;15.80;99.90;;;;;;5011823;28;20379;-75
2021/09/02 04:57:13;;;;;;;9.38;7.25;;;15.80;99.90;;;;;;5012957;28;20105;-77
2021/09/02 04:59:38;;;;;;;8.65;6.63;;;15.80;99.90;;;;;;5012435;28;20028;-77
2021/09/02 05:02:04;;;;;;;11.27;6.63;;;15.80;99.90;;;;;;5011560;28;20030;-75
2021/09/02 05:04:30;;;;;;;7.60;6.90;;;15.80;99.90;;;;;;5011901;28;20080;-75
2021/09/02 05:06:55;;;;;;;9.38;7.20;;;15.90;99.90;;;;;;5012657;28;20072;-75
2021/09/02 05:09:21;;;;;;;8.02;6.82;;;15.90;99.90;;;;;;5012253;28;20085;-75
2021/09/02 05:11:46;;;;;;;11.77;7.53;;;15.80;99.90;;;;;;5012529;28;20026;-76
2021/09/02 05:14:12;;;;;;;8.55;7.15;;;15.80;99.90;;;;;;5012952;28;20022;-76
2021/09/02 05:16:38;;;;;;;8.63;7.03;;;15.80;99.90;;;;;;5011620;28;20026;-76
2021/09/02 05:19:03;;;;;;;9.57;7.00;;;15.90;99.90;;;;;;5011325;28;20022;-75
2021/09/02 05:21:29;;;;;;;11.40;6.70;;;15.80;99.90;;;;;;5011876;28;20049;-75
2021/09/02 05:23:54;;;;;;;8.30;6.10;;;15.80;99.90;;;;;;5000849;28;20482;-77
2021/09/02 05:26:20;;;;;;;8.32;6.60;;;15.90;99.90;;;;;;4993704;28;20018;-75
2021/09/02 05:28:45;;;;;;;11.55;6.75;;;15.90;99.90;;;;;;4994697;28;20042;-75
2021/09/02 05:31:11;;;;;;;7.60;6.90;;;15.90;99.90;;;;;;4999702;28;20034;-74
2021/09/02 05:33:37;;;;;;;7.25;5.50;;;15.90;99.90;;;;;;4996060;28;20038;-75
2021/09/02 05:36:02;;;;;;;12.40;7.18;;;16.00;99.90;;;;;;4999339;28;20029;-76
2021/09/02 05:38:28;;;;;;;14.15;7.70;;;16.00;99.90;;;;;;4994787;28;20030;-75
2021/09/02 05:40:53;;;;;;;7.15;6.45;;;16.00;99.90;;;;;;4996062;28;20493;-75
2021/09/02 05:43:19;;;;;;;10.15;6.85;;;16.00;99.90;;;;;;4997082;28;20030;-74
2021/09/02 05:45:45;;;;;;;7.63;6.25;;;16.00;99.90;;;;;;4998039;28;20107;-76
2021/09/02 05:48:10;;;;;;;8.88;6.32;;;16.10;99.90;;;;;;4994540;28;20026;-76
2021/09/02 05:50:36;;;;;;;9.32;7.05;;;16.10;99.90;;;;;;4993564;28;20053;-76
2021/09/02 05:53:02;;;;;;;10.52;6.60;;;16.20;99.90;;;;;;4997327;28;20122;-76
2021/09/02 05:55:28;;;;;;;10.18;7.18;;;16.10;99.90;;;;;;4994424;28;20026;-76
2021/09/02 05:57:53;;;;;;;6.20;5.38;;;16.10;99.90;;;;;;4994199;28;20062;-76
2021/09/02 06:00:19;;;;;;;9.30;6.85;;;16.20;99.90;;;;;;4994100;28;20100;-76
2021/09/02 06:02:45;;;;;;;7.13;5.93;;;16.20;99.90;;;;;;4994388;28;20080;-76
2021/09/02 06:05:10;;;;;;;7.38;5.97;;;16.20;99.90;;;;;;4996429;28;20072;-75
2021/09/02 06:07:36;;;;;;;10.30;6.55;;;16.30;99.90;;;;;;4995243;28;20382;-77
2021/09/02 06:10:02;;;;;;;10.60;5.15;;;16.30;99.90;;;;;;4998751;28;20133;-76
2021/09/02 06:12:28;;;;;;;5.75;5.15;;;16.40;99.90;;;;;;5009770;28;20030;-76
2021/09/02 06:14:54;;;;;;;6.90;5.15;;;16.40;99.90;;;;;;5013135;28;20485;-76
2021/09/02 06:17:19;;;;;;;9.63;5.18;;;16.50;99.90;;;;;;5014872;28;20018;-76
2021/09/02 06:19:45;;;;;;;8.63;5.05;;;16.40;99.90;;;;;;5010743;28;20036;-76
2021/09/02 06:22:10;;;;;;;8.23;5.32;;;16.60;99.90;;;;;;5014635;28;20447;-76
2021/09/02 06:24:36;;;;;;;8.30;5.00;;;16.70;99.90;;;;;;5015464;28;20100;-76
2021/09/02 06:27:01;;;;;;;7.07;4.88;;;16.70;99.90;;;;;;5013799;28;20022;-76
2021/09/02 06:29:27;;;;;;;5.45;4.00;;;16.80;99.90;;;;;;5014683;28;20034;-76
2021/09/02 06:31:53;;;;;;;5.97;4.82;;;16.80;99.90;;;;;;5009399;28;20026;-76
2021/09/02 06:34:18;;;;;;;7.63;4.78;;;16.90;99.90;;;;;;5008370;28;20022;-75
2021/09/02 06:36:44;;;;;;;9.13;4.88;;;17.00;99.90;;;;;;5014465;28;20022;-77
2021/09/02 06:39:10;;;;;;;6.97;5.20;;;17.00;99.90;;;;;;5014802;28;20101;-76
2021/09/02 06:41:35;;;;;;;9.05;4.85;;;17.10;99.90;;;;;;5014405;28;20037;-75
2021/09/02 06:44:01;;;;;;;10.18;5.25;;;17.10;99.90;;;;;;5015381;28;20077;-75
2021/09/02 06:46:27;;;;;;;8.27;5.25;;;17.20;99.90;;;;;;5017035;28;20033;-81
2021/09/02 06:48:53;;;;;;;5.95;4.90;;;17.20;99.90;;;;;;5007210;28;20041;-81
2021/09/02 06:51:19;;;;;;;7.18;4.47;;;17.30;99.90;;;;;;5009822;28;20030;-81
2021/09/02 06:53:45;;;;;;;6.00;4.57;;;17.30;99.90;;;;;;5017516;28;20028;-81
2021/09/02 06:56:11;;;;;;;6.63;5.20;;;17.40;99.90;;;;;;5016970;28;20022;-81
2021/09/02 06:58:36;;;;;;;8.77;5.03;;;17.50;99.90;;;;;;5009725;28;20064;-82
2021/09/02 07:01:02;;;;;;;6.65;4.30;;;17.50;99.90;;;;;;5011910;28;20030;-81
2021/09/02 07:03:28;;;;;;;6.75;4.75;;;17.40;99.90;;;;;;5006205;28;20516;-82
2021/09/02 07:05:53;;;;;;;8.50;4.72;;;17.40;99.90;;;;;;5000857;28;20046;-82
2021/09/02 07:08:19;;;;;;;6.20;4.57;;;17.50;99.90;;;;;;5002247;28;20096;-81
2021/09/02 07:10:45;;;;;;;8.52;5.50;;;17.60;99.90;;;;;;5006518;28;20065;-83
2021/09/02 07:13:11;;;;;;;7.03;5.00;;;17.70;99.90;;;;;;5012239;28;20018;-80
2021/09/02 07:15:36;;;;;;;8.68;5.07;;;17.70;99.90;;;;;;5000029;28;20445;-82
2021/09/02 07:18:02;;;;;;;8.35;4.28;;;17.80;99.90;;;;;;5000962;28;20053;-83
2021/09/02 07:20:28;;;;;;;8.52;4.47;;;17.90;99.90;;;;;;5007524;28;20034;-83
2021/09/02 07:22:53;;;;;;;5.85;5.05;;;17.90;99.90;;;;;;5008574;28;20088;-82
2021/09/02 07:25:19;;;;;;;8.32;5.05;;;17.90;99.90;;;;;;5000239;28;20025;-80
2021/09/02 07:27:45;;;;;;;6.78;4.40;;;18.00;99.90;;;;;;5006638;28;20034;-82
2021/09/02 07:30:11;;;;;;;5.68;4.43;;;18.10;99.90;;;;;;5008171;28;20548;-83
2021/09/02 07:32:36;;;;;;;11.23;4.60;;;18.10;99.90;;;;;;5006734;28;20029;-81
2021/09/02 07:35:03;;;;;;;8.65;5.45;;;18.20;99.90;;;;;;5015751;28;20323;-80
2021/09/02 07:37:29;;;;;;;7.47;4.78;;;18.20;99.90;;;;;;5010969;28;20044;-81
2021/09/02 07:39:57;;;;;;;7.65;4.85;;;18.20;99.90;;;;;;5010061;28;20026;-82
2021/09/02 07:42:23;;;;;;;7.55;5.03;;;18.30;99.90;;;;;;5015831;28;20028;-80
2021/09/02 07:44:48;;;;;;;8.27;5.13;;;18.40;99.90;;;;;;5013773;28;20021;-80
2021/09/02 07:47:15;;;;;;;7.22;5.10;;;18.50;99.90;;;;;;5014580;28;20022;-81
2021/09/02 07:49:41;;;;;;;6.18;4.43;;;18.50;99.90;;;;;;5013240;28;20161;-81
2021/09/02 07:52:09;;;;;;;7.82;5.43;;;18.50;99.90;;;;;;5013516;28;20022;-81
2021/09/02 07:54:35;;;;;;;6.40;4.25;;;18.50;99.90;;;;;;5013732;28;20410;-82
2021/09/02 07:57:01;;;;;;;11.95;5.03;;;18.60;99.90;;;;;;5013569;28;20020;-78
2021/09/02 07:59:26;;;;;;;5.90;4.43;;;18.50;99.90;;;;;;5013654;28;20026;-78
2021/09/02 08:01:52;;;;;;;8.93;4.75;;;18.50;99.90;;;;;;5013518;28;20481;-81
2021/09/02 08:04:17;;;;;;;9.27;5.00;;;18.50;99.90;;;;;;5009925;28;20406;-77
2021/09/02 08:06:43;;;;;;;7.07;4.90;;;18.50;99.90;;;;;;5008252;28;20030;-79
2021/09/02 08:09:08;;;;;;;13.77;6.68;;;18.50;99.90;;;;;;5014461;28;20073;-81
2021/09/02 08:11:34;;;;;;;12.77;6.47;;;18.50;99.90;;;;;;5000477;28;20022;-80
2021/09/02 08:14:00;;;;;;;15.00;5.38;;;18.60;99.90;;;;;;5011966;28;20501;-79
2021/09/02 08:16:26;;;;;;;9.35;5.47;;;18.70;99.90;;;;;;5009040;28;20382;-80
2021/09/02 08:18:52;;;;;;;11.25;5.70;;;18.80;99.90;;;;;;5012599;28;20026;-79
2021/09/02 08:21:18;;;;;;;6.32;4.82;;;18.90;99.90;;;;;;5011940;28;20396;-80
2021/09/02 08:23:44;;;;;;;12.93;5.57;;;18.90;99.90;;;;;;5013654;28;20108;-81
2021/09/02 08:26:10;;;;;;;7.32;4.38;;;18.80;99.90;;;;;;5010929;28;20403;-79
2021/09/02 08:28:35;;;;;;;9.68;5.57;;;18.80;99.90;;;;;;5011407;28;20051;-83
2021/09/02 08:31:01;;;;;;;7.25;4.30;;;19.00;99.90;;;;;;5010160;28;20033;-84
2021/09/02 08:33:26;;;;;;;6.15;4.60;;;19.10;99.90;;;;;;5013398;28;20125;-82
2021/09/02 08:35:53;;;;;;;7.47;5.22;;;19.30;99.90;;;;;;5015570;28;20437;-77
2021/09/02 08:38:20;;;;;;;5.47;4.68;;;19.40;99.90;;;;;;5013766;28;20025;-82
2021/09/02 08:40:46;;;;;;;6.90;4.18;;;19.40;99.90;;;;;;5014910;28;20033;-82
2021/09/02 08:43:12;;;;;;;7.13;4.57;;;19.40;99.90;;;;;;5011719;28;20029;-81
2021/09/02 08:45:41;;;;;;;6.30;4.45;;;19.20;99.90;;;;;;5013045;28;20592;-82
2021/09/02 08:48:08;;;;;;;15.75;5.53;;;19.30;99.90;;;;;;5014208;28;20497;-83
2021/09/02 08:50:36;;;;;;;8.73;4.82;;;19.40;99.90;;;;;;5011038;28;20054;-80
2021/09/02 08:53:03;;;;;;;14.13;4.43;;;19.50;99.90;;;;;;5010265;28;20026;-82
2021/09/02 08:55:29;;;;;;;5.53;4.40;;;19.60;99.90;;;;;;5008175;28;20100;-79
2021/09/02 08:58:00;;;;;;;12.60;5.22;;;19.60;99.90;;;;;;5012518;28;20021;-82
2021/09/02 09:00:27;;;;;;;6.65;5.10;;;19.60;99.90;;;;;;5014953;28;20084;-78
2021/09/02 09:02:58;;;;;;;9.88;4.85;;;19.40;99.90;;;;;;5015897;28;20031;-83
2021/09/02 09:05:24;;;;;;;5.93;4.72;;;19.30;99.90;;;;;;5002031;28;20097;-80
2021/09/02 09:07:50;;;;;;;6.32;4.72;;;19.20;99.90;;;;;;5008779;28;20110;-80
2021/09/02 09:10:21;;;;;;;10.00;4.32;;;19.20;99.90;;;;;;4997877;28;20034;-80
2021/09/02 09:12:50;;;;;;;7.75;4.75;;;19.20;99.90;;;;;;5005535;28;20478;-81
2021/09/02 09:15:29;;;;;;;6.38;4.45;;;19.30;99.90;;;;;;5012020;28;20116;-79
2021/09/02 09:17:56;;;;;;;9.25;4.22;;;19.50;99.90;;;;;;5013293;28;20022;-82
2021/09/02 09:20:24;;;;;;;5.65;4.55;;;19.70;99.90;;;;;;5008559;28;20045;-80
2021/09/02 09:22:59;;;;;;;7.47;4.35;;;19.90;99.90;;;;;;5006836;28;20113;-79
2021/09/02 09:25:26;;;;;;;8.40;4.75;;;20.10;99.90;;;;;;5012848;28;20029;-78
2021/09/02 09:27:58;;;;;;;5.95;4.78;;;20.20;99.90;;;;;;5013258;28;20022;-79
2021/09/02 09:30:28;;;;;;;5.22;4.15;;;20.10;99.90;;;;;;5012182;28;20040;-78
2021/09/02 09:33:04;;;;;;;8.80;4.57;;;20.10;99.90;;;;;;5013235;28;20114;-78
2021/09/02 09:35:33;;;;;;;6.82;5.68;;;20.20;99.90;;;;;;5012409;28;20029;-78
2021/09/02 09:38:21;;;;;;;7.13;4.70;;;20.20;99.90;;;;;;5012900;28;20467;-79
2021/09/02 09:40:52;;;;;;;6.28;4.10;;;20.30;99.90;;;;;;4998140;28;20049;-78
2021/09/02 09:43:24;;;;;;;7.60;4.32;;;20.30;99.90;;;;;;5006376;28;20500;-79
2021/09/02 09:46:00;;;;;;;8.10;4.60;;;20.30;99.90;;;;;;4999659;28;20117;-81
2021/09/02 09:48:33;;;;;;;7.00;4.72;;;20.50;99.90;;;;;;5009943;28;20022;-80
2021/09/02 09:51:13;;;;;;;12.02;4.65;;;20.60;99.90;;;;;;5011116;28;20048;-81
2021/09/02 09:53:44;;;;;;;10.10;4.43;;;20.80;99.40;;;;;;5013601;28;20363;-79
2021/09/02 09:56:11;;;;;;;6.63;4.32;;;20.70;99.00;;;;;;5012496;28;20261;-78
2021/09/02 09:58:37;;;;;;;5.18;4.68;;;20.80;99.10;;;;;;5006528;28;20027;-78
2021/09/02 10:01:05;;;;;;;5.32;4.38;;;21.00;98.70;;;;;;5010753;28;20018;-80
2021/09/02 10:03:32;;;;;;;6.38;5.32;;;21.00;98.70;;;;;;5011559;28;20034;-78
2021/09/02 10:06:09;;;;;;;7.68;4.75;;;21.20;98.70;;;;;;5011257;28;20482;-80
2021/09/02 10:08:43;;;;;;;7.32;4.32;;;21.30;98.60;;;;;;5005512;28;20026;-81
2021/09/02 10:11:12;;;;;;;10.60;4.70;;;21.50;98.70;;;;;;5008698;28;20026;-80
2021/09/02 10:13:38;;;;;;;6.03;4.40;;;21.60;98.20;;;;;;5010890;28;20505;-79
2021/09/02 10:16:08;;;;;;;7.50;4.60;;;21.70;97.70;;;;;;5011995;28;20121;-80
2021/09/02 10:18:41;;;;;;;7.75;4.82;;;21.70;98.00;;;;;;5011196;28;20022;-78
2021/09/02 10:21:08;;;;;;;9.75;5.22;;;21.70;97.90;;;;;;5009915;28;20033;-78
2021/09/02 10:23:34;;;;;;;8.07;5.57;;;21.70;98.10;;;;;;5005785;28;20018;-81
2021/09/02 10:26:00;;;;;;;9.95;5.72;;;21.60;97.90;;;;;;5007899;28;20030;-80
2021/09/02 10:28:34;;;;;;;8.45;5.10;;;21.60;97.80;;;;;;5011637;28;20475;-79
2021/09/02 10:31:02;;;;;;;9.65;5.10;;;21.50;97.60;;;;;;5011959;28;20069;-79
2021/09/02 10:33:42;;;;;;;7.78;5.40;;;21.40;97.70;;;;;;5010907;28;20029;-79
2021/09/02 10:36:10;;;;;;;9.95;5.97;;;21.40;98.20;;;;;;4999814;28;20088;-79
2021/09/02 10:38:38;;;;;;;13.70;5.50;;;21.30;97.60;;;;;;5011535;28;20077;-80
2021/09/02 10:41:04;;;;;;;8.65;4.70;;;21.20;98.00;;;;;;5011052;28;20033;-80
2021/09/02 10:43:54;;;;;;;9.50;5.32;;;21.00;98.10;;;;;;5008179;28;20034;-79
2021/09/02 10:46:34;;;;;;;10.52;6.03;;;20.90;98.50;;;;;;4996688;28;20109;-80
2021/09/02 10:49:16;;;;;;;8.73;5.40;;;20.80;97.70;;;;;;4995176;28;20103;-81
2021/09/02 10:51:48;;;;;;;10.52;5.45;;;20.60;97.80;;;;;;4992241;28;20426;-80
2021/09/02 10:54:15;;;;;;;5.88;5.28;;;20.50;98.20;;;;;;4994189;28;20029;-78
2021/09/02 10:57:04;;;;;;;8.57;5.45;;;20.60;98.80;;;;;;4991260;28;20038;-79
2021/09/02 10:59:38;;;;;;;10.07;5.63;;;20.60;98.80;;;;;;5009882;28;20025;-77
2021/09/02 11:02:11;;;;;;;9.30;6.28;;;20.90;99.10;;;;;;5011887;28;20018;-77
2021/09/02 11:04:38;;;;;;;10.13;6.47;;;21.10;98.50;;;;;;4999208;28;20030;-78
2021/09/02 11:07:04;;;;;;;11.10;7.43;;;21.30;98.30;;;;;;5014296;28;20056;-77
2021/09/02 11:09:32;;;;;;;10.38;6.90;;;21.50;98.50;;;;;;5014243;28;20033;-77
2021/09/02 11:12:00;;;;;;;10.68;7.72;;;21.60;97.40;;;;;;5014923;28;20474;-77
2021/09/02 11:14:29;;;;;;;9.10;6.25;;;21.60;97.70;;;;;;5014287;28;20026;-78
2021/09/02 11:16:55;;;;;;;12.57;7.10;;;21.70;97.80;;;;;;5014727;28;20040;-77
2021/09/02 11:19:35;;;;;;;8.52;6.95;;;21.80;97.20;;;;;;5014729;28;20105;-77
2021/09/02 11:22:15;;;;;;;9.57;6.27;;;22.00;97.10;;;;;;5014001;28;20485;-77
2021/09/02 11:24:44;;;;;;;9.98;6.65;;;22.10;96.60;;;;;;5014529;28;20061;-77
2021/09/02 11:27:13;;;;;;;13.13;7.20;;;22.20;96.60;;;;;;5014654;28;20057;-78
2021/09/02 11:29:39;;;;;;;9.63;7.28;;;22.30;96.50;;;;;;5013505;28;20437;-77
2021/09/02 11:32:10;;;;;;;8.95;7.38;;;22.30;96.50;;;;;;5014135;28;20018;-77
2021/09/02 11:34:35;;;;;;;9.05;7.20;;;22.30;96.70;;;;;;5008581;28;20038;-75
2021/09/02 11:37:02;;;;;;;8.73;7.18;;;22.10;96.80;;;;;;5010167;28;20072;-75
2021/09/02 11:39:39;;;;;;;11.15;8.30;;;22.00;96.90;;;;;;5013988;28;20054;-76
2021/09/02 11:42:07;;;;;;;9.18;7.00;;;22.00;97.10;;;;;;5013905;28;20026;-76
2021/09/02 11:44:37;;;;;;;9.57;8.57;;;21.90;97.40;;;;;;5013737;28;20022;-77
2021/09/02 11:47:09;;;;;;;11.48;8.02;;;21.80;96.80;;;;;;5006441;28;20025;-75
2021/09/02 11:49:36;;;;;;;10.98;8.82;;;21.70;97.10;;;;;;4995344;28;20109;-75
2021/09/02 11:52:04;;;;;;;12.80;8.60;;;21.60;97.10;;;;;;4996206;28;20069;-78
2021/09/02 11:54:31;;;;;;;10.05;8.13;;;21.60;97.60;;;;;;4998099;28;20045;-77
2021/09/02 11:56:57;;;;;;;10.60;7.75;;;21.60;97.50;;;;;;4997837;28;20148;-76
2021/09/02 11:59:22;;;;;;;9.93;8.13;;;21.70;97.10;;;;;;5013819;28;20538;-75
2021/09/02 12:01:50;;;;;;;11.98;7.90;;;21.70;96.80;;;;;;5013623;28;20585;-76
2021/09/02 12:04:28;;;;;;;9.43;7.13;;;21.70;96.00;;;;;;5000292;28;20467;-76
2021/09/02 12:07:00;;;;;;;9.77;7.28;;;21.50;96.10;;;;;;5000827;28;20034;-76
2021/09/02 12:09:31;;;;;;;11.25;8.80;;;21.50;97.20;;;;;;5013862;28;20038;-78
2021/09/02 12:11:57;;;;;;;11.98;9.55;;;21.60;96.80;;;;;;5012678;28;20018;-77
2021/09/02 12:14:28;;;;;;;9.82;7.82;;;21.60;95.80;;;;;;5010524;28;20052;-76
2021/09/02 12:17:01;;;;;;;48.03;9.88;;;21.50;96.20;;;;;;5001879;28;20222;-77
2021/09/02 12:19:27;;;;;;;11.68;7.50;;;21.60;96.80;;;;;;5004968;28;20026;-81
2021/09/02 12:21:53;;;;;;;11.57;6.70;;;21.70;96.80;;;;;;5010770;28;20391;-80
2021/09/02 12:24:20;;;;;;;10.43;6.90;;;21.90;97.20;;;;;;5003158;28;20030;-80
2021/09/02 12:26:51;;;;;;;9.68;7.50;;;22.00;97.10;;;;;;5013271;28;20466;-80
2021/09/02 12:29:23;;;;;;;11.73;8.57;;;22.10;96.80;;;;;;5013738;28;20129;-80
2021/09/02 12:31:50;;;;;;;12.95;8.65;;;22.20;96.30;;;;;;5011360;28;20113;-79
2021/09/02 12:34:18;;;;;;;12.65;9.10;;;22.00;96.80;;;;;;5012924;28;20029;-80
2021/09/02 12:36:45;;;;;;;10.95;8.05;;;22.00;96.90;;;;;;5012325;28;20032;-80
2021/09/02 12:39:15;;;;;;;13.20;9.77;;;21.90;97.00;;;;;;5011939;28;20033;-79
2021/09/02 12:41:42;;;;;;;14.85;9.75;;;21.90;97.10;;;;;;5012744;28;20105;-80
2021/09/02 12:44:10;;;;;;;10.52;7.82;;;22.00;96.50;;;;;;5012882;28;20026;-80